Sawtelle Peak

Sawtelle summit stationLocated on Sawtelle Peak in the Centennials. Use the Sawtelle SNOdar or the nearest SNOTEL station for snow depth data: White Elephant. The data on this page is also available to view at dataGarrison.com.

 

Elevation
9885ft
Jump to table bottom
Date Time Temperature
deg F
RH, % Wind Speed Wind Gust Wind Direction Pressure Light
12/06/22 23:00 6.9 90 32 45 NW - 327 698.360 2
12/06/22 22:00 7.1 91 28 40 NW - 330 698.440 3
12/06/22 21:00 6.7 90 31 41 NW - 330 698.040 3
12/06/22 20:00 6.5 90 24 37 NW - 337 698.420 1
12/06/22 19:00 6.3 90 38 50 NW - 330 697.580 2
12/06/22 18:00 5.4 89 32 49 NW - 336 696.680 1
12/06/22 17:00 6.1 90 29 41 NW - 334 696.840 556
12/06/22 16:00 6.2 90 36 47 NW - 331 696.120 61,538
12/06/22 15:00 7.0 89 34 48 NW - 331 695.320 223,493
12/06/22 14:00 9.0 90 33 45 NW - 329 695.700 284,512
12/06/22 13:00 9.3 89 21 43 NW - 329 695.980 371,973
12/06/22 12:00 13.3 91 15 27 NW - 337 697.280 632,321
12/06/22 11:00 10.9 91 18 25 N - 338 697.280 443,162
12/06/22 10:00 11.7 91 20 27 N - 338 697.240 428,924
12/06/22 09:00 11.0 91 18 26 N - 343 696.500 339,429
12/06/22 08:00 8.2 91 19 27 N - 341 696.120 91,285
12/06/22 07:00 7.7 90 14 24 N - 348 695.600 10
12/06/22 06:00 7.3 90 17 27 N - 345 695.720 0
12/06/22 05:00 6.0 90 12 25 N - 354 695.040 0
12/06/22 04:00 6.5 90 11 22 N - 0 695.380 0
12/06/22 03:00 6.2 90 10 23 N - 355 695.040 0
12/06/22 02:00 6.0 90 11 20 N - 357 695.300 1
12/06/22 01:00 7.0 90 13 19 N - 348 695.020 1
12/06/22 00:00 7.3 90 10 17 N - 358 695.360 1
12/05/22 23:00 7.5 90 8 14 N - 0 695.120 1
12/05/22 22:00 7.5 90 8 14 N - 358 695.300 1
12/05/22 21:00 6.5 90 9 17 N - 358 695.020 1
12/05/22 20:00 7.2 90 9 14 N - 357 695.000 1
12/05/22 19:00 6.3 90 6 14 N - 8 694.840 1
12/05/22 18:00 7.0 90 7 17 N - 10 694.940 1
12/05/22 17:00 6.9 90 12 21 N - 1 694.640 759
12/05/22 16:00 8.5 91 20 30 N - 347 694.400 118,743
12/05/22 15:00 9.5 91 20 27 N - 347 694.140 195,017
12/05/22 14:00 10.9 91 17 24 N - 350 694.640 378,075
12/05/22 13:00 11.6 91 12 24 N - 348 694.560 451,298
12/05/22 12:00 12.8 92 9 14 N - 347 695.780 453,332
12/05/22 11:00 12.0 92 7 15 N - 7 696.380 245,867
12/05/22 10:00 13.4 92 7 17 N - 6 696.640 214,340
12/05/22 09:00 11.0 92 7 14 N - 7 696.620 94,336
12/05/22 08:00 11.5 92 5 13 N - 21 696.600 13,994
12/05/22 07:00 11.0 92 7 15 N - 15 696.420 4
12/05/22 06:00 11.7 92 5 16 NE - 34 696.280 0
12/05/22 05:00 12.2 92 8 23 NE - 35 696.160 0
12/05/22 04:00 13.6 92 7 29 NE - 37 695.840 0
12/05/22 03:00 13.7 92 20 37 N - 344 695.820 0
12/05/22 02:00 14.0 93 31 41 NW - 330 694.140 0
12/05/22 01:00 13.9 92 27 41 NW - 329 694.360 1
12/05/22 00:00 18.0 94 19 27 N - 347 695.720 0
12/04/22 23:00 17.0 94 16 22 NW - 336 696.460 0
12/04/22 22:00 17.0 93 15 24 NW - 330 696.340 1